Time;durP1;ratioP1;P1;durP2;ratioP2;P2;SDS_P1;SDS_P2;PMS_P1;PMS_P2;Temp;Humidity;BMP_temperature;BMP_pressure;BME280_temperature;BME280_humidity;BME280_pressure;Samples;Min_cycle;Max_cycle;Signal;HPM_P1;HPM_P2
2020/12/11 00:01:23;;;;;;;47.65;42.63;;;28.90;63.20;;;;;;5024706;28;20238;-65
2020/12/11 00:03:54;;;;;;;42.88;38.50;;;28.90;64.10;;;;;;5026589;28;20245;-64
2020/12/11 00:06:29;;;;;;;45.13;40.35;;;28.90;63.20;;;;;;5026076;28;20246;-65
2020/12/11 00:09:00;;;;;;;45.47;40.60;;;28.90;63.20;;;;;;5022931;28;20230;-65
2020/12/11 00:11:31;;;;;;;43.08;38.47;;;28.90;63.10;;;;;;5026921;28;20242;-64
2020/12/11 00:14:01;;;;;;;45.88;41.03;;;28.90;63.20;;;;;;5024276;28;20231;-64
2020/12/11 00:16:32;;;;;;;46.58;41.47;;;28.90;63.20;;;;;;5027369;28;20380;-64
2020/12/11 00:19:03;;;;;;;47.75;42.63;;;28.90;63.90;;;;;;5024537;28;20235;-65
2020/12/11 00:21:41;;;;;;;44.75;39.97;;;28.90;63.00;;;;;;5025641;28;20295;-64
2020/12/11 00:24:11;;;;;;;42.15;37.80;;;28.90;63.00;;;;;;5025415;28;20249;-65
2020/12/11 00:26:42;;;;;;;42.17;37.72;;;29.00;63.00;;;;;;5024532;28;20798;-65
2020/12/11 00:29:13;;;;;;;44.80;39.95;;;29.00;63.00;;;;;;5033788;28;20378;-65
2020/12/11 00:31:43;;;;;;;43.92;39.42;;;29.00;62.90;;;;;;5062592;28;20245;-65
2020/12/11 00:34:14;;;;;;;43.38;38.33;;;29.00;62.90;;;;;;5067252;28;20231;-65
2020/12/11 00:36:46;;;;;;;42.45;37.85;;;29.00;62.90;;;;;;5058506;28;20253;-65
2020/12/11 00:39:16;;;;;;;42.38;37.80;;;29.10;63.00;;;;;;5055543;28;20229;-65
2020/12/11 00:41:47;;;;;;;40.90;36.25;;;29.10;63.10;;;;;;5065829;28;20225;-64
2020/12/11 00:44:18;;;;;;;42.40;37.85;;;29.10;63.30;;;;;;5063124;28;20760;-65
2020/12/11 00:46:51;;;;;;;42.60;38.10;;;29.10;63.30;;;;;;5048872;28;20677;-65
2020/12/11 00:49:23;;;;;;;40.47;36.17;;;29.20;63.50;;;;;;5055936;28;20239;-65
2020/12/11 00:51:56;;;;;;;45.90;41.22;;;29.20;63.70;;;;;;5072282;28;20233;-65
2020/12/11 00:54:28;;;;;;;38.30;34.50;;;29.30;63.50;;;;;;5062310;28;20727;-65
2020/12/11 00:56:58;;;;;;;40.33;36.15;;;29.30;63.50;;;;;;5068438;28;20267;-64
2020/12/11 00:59:29;;;;;;;39.80;35.75;;;29.40;63.60;;;;;;5065510;28;20697;-63
2020/12/11 01:01:59;;;;;;;41.00;36.60;;;29.50;63.60;;;;;;5052241;28;20236;-64
2020/12/11 01:04:30;;;;;;;43.22;38.88;;;29.60;63.70;;;;;;5061845;28;20241;-64
2020/12/11 01:07:02;;;;;;;41.30;37.22;;;29.60;63.40;;;;;;5054418;28;20263;-64
2020/12/11 01:09:33;;;;;;;42.83;38.33;;;29.70;63.10;;;;;;5049084;28;20245;-64
2020/12/11 01:12:03;;;;;;;42.42;38.22;;;29.80;62.90;;;;;;5064126;28;20225;-64
2020/12/11 01:14:34;;;;;;;42.22;38.08;;;29.80;62.70;;;;;;5068946;28;20236;-64
2020/12/11 01:17:04;;;;;;;39.25;35.35;;;29.90;62.50;;;;;;5068476;28;20231;-64
2020/12/11 01:19:35;;;;;;;38.38;34.47;;;29.90;62.40;;;;;;5065618;28;20608;-64
2020/12/11 01:22:07;;;;;;;38.13;34.25;;;30.00;62.20;;;;;;5056537;28;20241;-64
2020/12/11 01:24:37;;;;;;;40.42;36.08;;;30.00;61.80;;;;;;5058846;28;20290;-64
2020/12/11 01:27:08;;;;;;;37.65;33.85;;;30.10;61.40;;;;;;5049686;28;20693;-64
2020/12/11 01:29:38;;;;;;;37.50;33.85;;;30.10;61.10;;;;;;5065655;28;20582;-64
2020/12/11 01:32:09;;;;;;;35.72;32.20;;;30.10;60.70;;;;;;5056470;28;20228;-64
2020/12/11 01:34:40;;;;;;;37.67;33.92;;;30.20;60.70;;;;;;5051172;28;20232;-64
2020/12/11 01:37:14;;;;;;;36.00;32.25;;;30.30;60.70;;;;;;5051814;28;20276;-64
2020/12/11 01:39:45;;;;;;;39.03;35.10;;;30.30;60.50;;;;;;5062866;28;20334;-64
2020/12/11 01:42:16;;;;;;;36.47;32.83;;;30.30;60.20;;;;;;5062430;28;20234;-64
2020/12/11 01:44:49;;;;;;;35.30;31.83;;;30.40;60.10;;;;;;5050219;28;20234;-64
2020/12/11 01:47:20;;;;;;;32.20;29.13;;;30.40;59.70;;;;;;5048458;28;20658;-64
2020/12/11 01:49:51;;;;;;;34.40;31.10;;;30.40;59.80;;;;;;5056137;28;20248;-64
2020/12/11 01:52:22;;;;;;;33.55;30.05;;;30.50;59.50;;;;;;5015224;28;20818;-64
2020/12/11 01:54:53;;;;;;;31.75;28.23;;;30.50;59.30;;;;;;5025015;28;20238;-64
2020/12/11 01:57:28;;;;;;;31.23;27.92;;;30.60;59.20;;;;;;5024412;28;20229;-63
2020/12/11 01:59:59;;;;;;;31.02;28.08;;;30.60;59.00;;;;;;5024265;28;20242;-64
2020/12/11 02:02:29;;;;;;;29.52;26.50;;;30.70;59.10;;;;;;5004356;28;20372;-66
2020/12/11 02:05:00;;;;;;;34.65;31.05;;;30.80;58.90;;;;;;5004956;28;20235;-64
2020/12/11 02:07:32;;;;;;;31.73;28.52;;;30.80;58.60;;;;;;5005397;28;20652;-63
2020/12/11 02:10:02;;;;;;;32.30;28.90;;;30.80;58.50;;;;;;5003025;28;20234;-63
2020/12/11 02:12:33;;;;;;;32.42;29.10;;;30.90;58.40;;;;;;4994990;28;20235;-64
2020/12/11 02:15:04;;;;;;;33.10;29.70;;;30.90;58.20;;;;;;4998992;28;20232;-64
2020/12/11 02:17:34;;;;;;;31.80;28.50;;;31.00;58.00;;;;;;4996733;28;20392;-63
2020/12/11 02:20:05;;;;;;;31.50;27.23;;;31.00;57.90;;;;;;4999722;28;20243;-63
2020/12/11 02:22:41;;;;;;;32.45;29.13;;;31.10;57.80;;;;;;5007707;28;20257;-62
2020/12/11 02:25:11;;;;;;;31.13;27.95;;;31.20;57.60;;;;;;5042008;28;20229;-64
2020/12/11 02:27:42;;;;;;;28.80;25.90;;;31.20;57.40;;;;;;5057551;28;20228;-64
2020/12/11 02:30:12;;;;;;;30.30;27.20;;;31.20;57.60;;;;;;5057888;28;20232;-64
2020/12/11 02:32:42;;;;;;;29.70;26.85;;;31.30;57.60;;;;;;5055884;28;20229;-63
2020/12/11 02:35:13;;;;;;;31.08;27.98;;;31.30;57.50;;;;;;5057751;28;20225;-64
2020/12/11 02:37:45;;;;;;;32.30;28.95;;;31.40;57.20;;;;;;5065608;28;20232;-63
2020/12/11 02:40:16;;;;;;;34.20;30.77;;;31.40;57.00;;;;;;5067535;28;20235;-64
2020/12/11 02:42:46;;;;;;;30.95;27.60;;;31.50;56.60;;;;;;5056166;28;20250;-64
2020/12/11 02:45:17;;;;;;;30.88;27.60;;;31.60;56.90;;;;;;5062381;28;20237;-64
2020/12/11 02:47:47;;;;;;;28.10;25.20;;;31.60;56.10;;;;;;5061001;28;20261;-65
2020/12/11 02:50:18;;;;;;;28.45;25.55;;;31.70;56.50;;;;;;5050968;28;20604;-64
2020/12/11 02:52:50;;;;;;;28.58;25.58;;;31.80;56.30;;;;;;5066446;28;20264;-64
2020/12/11 02:55:21;;;;;;;30.35;27.27;;;31.80;55.90;;;;;;5065642;28;20241;-64
2020/12/11 02:57:52;;;;;;;28.30;25.33;;;31.90;55.90;;;;;;5064266;28;20260;-63
2020/12/11 03:00:22;;;;;;;28.33;25.63;;;32.00;55.90;;;;;;5068233;28;20229;-64
2020/12/11 03:02:53;;;;;;;29.05;26.05;;;32.00;55.60;;;;;;5066800;28;20642;-63
2020/12/11 03:05:24;;;;;;;29.27;26.48;;;32.10;55.60;;;;;;5065177;28;20237;-63
2020/12/11 03:07:56;;;;;;;28.38;25.48;;;32.10;55.30;;;;;;5058150;28;20612;-63
2020/12/11 03:10:32;;;;;;;28.45;25.52;;;32.20;55.30;;;;;;5048645;28;20226;-63
2020/12/11 03:13:03;;;;;;;30.23;27.10;;;32.30;55.60;;;;;;5066399;28;20236;-63
2020/12/11 03:15:33;;;;;;;32.08;28.83;;;32.30;56.50;;;;;;5069525;28;20336;-62
2020/12/11 03:18:04;;;;;;;37.38;33.50;;;32.40;56.30;;;;;;5062566;28;20253;-63
2020/12/11 03:20:35;;;;;;;32.72;28.90;;;32.40;56.60;;;;;;5049980;28;20287;-63
2020/12/11 03:23:07;;;;;;;31.80;28.45;;;32.40;56.70;;;;;;5036133;28;20232;-64
2020/12/11 03:25:38;;;;;;;30.05;27.05;;;32.40;56.80;;;;;;5068035;28;20232;-64
2020/12/11 03:28:08;;;;;;;32.92;29.48;;;32.50;57.10;;;;;;5069315;28;20633;-66
2020/12/11 03:30:41;;;;;;;32.22;28.88;;;32.50;57.40;;;;;;5068995;28;20282;-64
2020/12/11 03:33:15;;;;;;;36.60;32.65;;;32.60;57.50;;;;;;5065853;28;20311;-62
2020/12/11 03:35:46;;;;;;;35.67;31.55;;;32.60;57.70;;;;;;5056787;28;20233;-68
2020/12/11 03:38:25;;;;;;;34.55;31.15;;;32.60;57.80;;;;;;5061419;28;20324;-62
2020/12/11 03:40:56;;;;;;;35.80;32.15;;;32.60;57.50;;;;;;5055395;28;20233;-65
2020/12/11 03:43:27;;;;;;;31.73;28.65;;;32.60;58.30;;;;;;5051691;28;20245;-63
2020/12/11 03:46:00;;;;;;;35.22;31.73;;;32.60;57.80;;;;;;5031317;28;20336;-62
2020/12/11 03:48:31;;;;;;;35.10;31.55;;;32.60;58.10;;;;;;5058556;28;20225;-63
2020/12/11 03:51:02;;;;;;;32.10;28.85;;;32.60;58.00;;;;;;5071081;28;20279;-63
2020/12/11 03:53:34;;;;;;;31.30;28.25;;;32.60;58.20;;;;;;5055931;28;20238;-63
2020/12/11 03:56:09;;;;;;;38.40;34.45;;;32.60;58.30;;;;;;5057464;28;20237;-63
2020/12/11 03:58:41;;;;;;;37.70;33.90;;;32.70;58.10;;;;;;5061237;28;20232;-60
2020/12/11 04:01:18;;;;;;;33.28;29.75;;;32.70;58.60;;;;;;5063476;28;20392;-58
2020/12/11 04:03:49;;;;;;;33.45;30.10;;;32.70;58.40;;;;;;5065115;28;20236;-61
2020/12/11 04:06:20;;;;;;;33.30;29.70;;;32.70;58.40;;;;;;5068407;28;20236;-65
2020/12/11 04:08:52;;;;;;;34.88;31.40;;;32.70;58.80;;;;;;5070293;28;20229;-61
2020/12/11 04:11:23;;;;;;;34.95;31.73;;;32.70;58.20;;;;;;5058657;28;20228;-62
2020/12/11 04:13:54;;;;;;;30.33;27.35;;;32.70;58.50;;;;;;5056026;28;20239;-64
2020/12/11 04:16:35;;;;;;;33.85;30.25;;;32.80;58.10;;;;;;5063590;28;20228;-63
2020/12/11 04:19:05;;;;;;;30.77;27.67;;;32.80;57.90;;;;;;5067456;28;20262;-62
2020/12/11 04:21:37;;;;;;;32.47;29.08;;;32.90;58.30;;;;;;5070276;28;20642;-62
2020/12/11 04:24:09;;;;;;;33.08;29.83;;;32.90;58.00;;;;;;5059879;28;20233;-61
2020/12/11 04:26:45;;;;;;;32.90;29.80;;;33.00;57.80;;;;;;5065989;28;20233;-63
2020/12/11 04:29:15;;;;;;;38.42;34.60;;;33.00;57.70;;;;;;5051050;28;20252;-65
2020/12/11 04:31:55;;;;;;;37.75;33.67;;;33.00;57.70;;;;;;5068216;28;20248;-62
2020/12/11 04:34:27;;;;;;;36.90;33.13;;;33.20;57.60;;;;;;5069378;28;20247;-62
2020/12/11 04:36:58;;;;;;;36.25;32.30;;;33.10;57.70;;;;;;5068168;28;20688;-62
2020/12/11 04:39:30;;;;;;;37.95;34.13;;;33.20;57.70;;;;;;5068513;28;20225;-58
2020/12/11 04:42:01;;;;;;;44.15;39.75;;;33.20;57.80;;;;;;5062897;28;20287;-60
2020/12/11 04:44:31;;;;;;;42.20;37.85;;;33.20;57.80;;;;;;5022325;28;20325;-57
2020/12/11 04:47:07;;;;;;;40.40;36.08;;;33.30;57.50;;;;;;5025878;28;20269;-61
2020/12/11 04:49:37;;;;;;;39.28;35.38;;;33.30;57.40;;;;;;5021282;28;20230;-65
2020/12/11 04:52:08;;;;;;;36.92;33.28;;;33.30;57.70;;;;;;5027238;28;20230;-60
2020/12/11 04:54:39;;;;;;;39.95;36.08;;;33.40;57.90;;;;;;5023743;28;20226;-60
2020/12/11 04:57:11;;;;;;;47.45;40.38;;;33.40;57.50;;;;;;5017867;28;20231;-59
2020/12/11 04:59:41;;;;;;;40.67;36.13;;;33.40;57.30;;;;;;5007415;28;20370;-61
2020/12/11 05:02:13;;;;;;;39.58;35.63;;;33.40;57.10;;;;;;5013620;28;20670;-62
2020/12/11 05:04:43;;;;;;;38.08;34.28;;;33.40;57.10;;;;;;5021364;28;20233;-61
2020/12/11 05:07:14;;;;;;;34.63;31.00;;;33.40;57.20;;;;;;5024656;28;20226;-61
2020/12/11 05:09:55;;;;;;;34.83;31.20;;;33.50;57.40;;;;;;5026497;28;20722;-61
2020/12/11 05:12:25;;;;;;;42.35;38.05;;;33.60;57.40;;;;;;5017450;28;20235;-61
2020/12/11 05:14:59;;;;;;;36.67;32.92;;;33.60;57.10;;;;;;5020071;28;20225;-61
2020/12/11 05:17:30;;;;;;;35.92;32.58;;;33.60;57.20;;;;;;5053383;28;21167;-62
2020/12/11 05:20:01;;;;;;;39.85;35.75;;;33.70;57.20;;;;;;5049598;28;20225;-62
2020/12/11 05:22:33;;;;;;;39.58;35.60;;;33.70;57.10;;;;;;5051279;28;20236;-61
2020/12/11 05:25:05;;;;;;;41.83;37.70;;;33.70;56.70;;;;;;5068255;28;20236;-63
2020/12/11 05:27:37;;;;;;;37.05;33.50;;;33.70;56.20;;;;;;5061766;28;20664;-60
2020/12/11 05:30:26;;;;;;;36.50;32.58;;;33.70;56.10;;;;;;5066405;28;20236;-61
2020/12/11 05:32:59;;;;;;;43.53;38.28;;;33.70;56.20;;;;;;5064131;28;20232;-59
2020/12/11 05:35:31;;;;;;;34.72;31.35;;;33.70;56.10;;;;;;5058851;28;20233;-61
2020/12/11 05:38:03;;;;;;;38.15;34.47;;;33.70;56.50;;;;;;5042693;28;20268;-59
2020/12/11 05:40:37;;;;;;;38.75;34.95;;;33.70;56.40;;;;;;5083339;28;20248;-62
2020/12/11 05:43:17;;;;;;;34.40;30.73;;;33.70;56.40;;;;;;5070236;28;20240;-61
2020/12/11 05:46:00;;;;;;;34.03;30.77;;;33.80;56.50;;;;;;5069543;28;20256;-61
2020/12/11 05:48:38;;;;;;;34.05;30.90;;;33.80;56.10;;;;;;5063504;28;20266;-61
2020/12/11 05:51:13;;;;;;;31.88;28.90;;;33.80;55.10;;;;;;5069265;28;20278;-58
2020/12/11 05:53:45;;;;;;;37.92;33.97;;;33.90;55.70;;;;;;5067262;28;20494;-61
2020/12/11 05:56:16;;;;;;;40.65;36.55;;;33.90;55.70;;;;;;5067995;28;20233;-59
2020/12/11 05:58:47;;;;;;;37.70;34.08;;;33.90;55.70;;;;;;5059260;28;20241;-58
2020/12/11 06:01:19;;;;;;;38.80;34.72;;;33.90;55.60;;;;;;5068081;28;20230;-57
2020/12/11 06:03:50;;;;;;;36.00;32.33;;;33.80;55.70;;;;;;5065594;28;20696;-60
2020/12/11 06:06:21;;;;;;;34.30;30.90;;;33.80;55.80;;;;;;5067044;28;20244;-60
2020/12/11 06:08:52;;;;;;;31.23;28.27;;;33.80;55.90;;;;;;5065646;28;20681;-59
2020/12/11 06:11:24;;;;;;;32.95;29.88;;;33.80;56.00;;;;;;5063089;28;20308;-60
2020/12/11 06:13:57;;;;;;;41.28;36.92;;;33.80;56.00;;;;;;5023554;28;20238;-59
2020/12/11 06:16:27;;;;;;;33.42;30.13;;;33.90;56.10;;;;;;5023825;28;20321;-59
2020/12/11 06:19:02;;;;;;;29.90;27.17;;;33.90;56.10;;;;;;5023372;28;20235;-59
2020/12/11 06:21:32;;;;;;;30.50;27.63;;;33.90;55.90;;;;;;4961546;28;20439;-55
2020/12/11 06:24:02;;;;;;;32.67;29.50;;;34.00;56.20;;;;;;4965430;28;20256;-58
2020/12/11 06:26:34;;;;;;;32.03;29.02;;;34.10;55.90;;;;;;4967049;28;20236;-59
2020/12/11 06:29:05;;;;;;;31.15;28.05;;;34.10;55.70;;;;;;4970810;28;20329;-59
2020/12/11 06:31:43;;;;;;;31.95;28.75;;;34.10;55.50;;;;;;4970948;28;20232;-59
2020/12/11 06:34:20;;;;;;;28.70;26.00;;;34.20;55.10;;;;;;4910029;29;20262;-59
2020/12/11 06:36:51;;;;;;;30.77;27.95;;;34.20;55.20;;;;;;4862403;29;20258;-59
2020/12/11 06:39:42;;;;;;;32.53;29.00;;;34.30;54.80;;;;;;4873858;29;20240;-59
2020/12/11 06:42:42;;;;;;;32.15;29.02;;;34.20;53.80;;;;;;4873676;29;20270;-59
2020/12/11 06:45:25;;;;;;;28.55;25.65;;;34.30;53.70;;;;;;4907736;28;20238;-59
2020/12/11 06:47:57;;;;;;;30.02;27.02;;;34.30;54.30;;;;;;4931761;29;20279;-58
2020/12/11 06:50:28;;;;;;;33.17;29.65;;;34.30;53.90;;;;;;4932882;29;20246;-59
2020/12/11 06:52:59;;;;;;;29.52;26.60;;;34.20;53.80;;;;;;4946908;28;20242;-59
2020/12/11 06:55:50;;;;;;;32.53;29.30;;;34.20;54.10;;;;;;4950492;28;20237;-59
2020/12/11 06:58:22;;;;;;;26.20;23.60;;;34.20;54.10;;;;;;4954187;28;20320;-59
2020/12/11 07:00:53;;;;;;;31.90;28.45;;;34.20;54.30;;;;;;4970189;28;20233;-59
2020/12/11 07:03:30;;;;;;;31.10;27.85;;;34.20;54.20;;;;;;4966565;28;20240;-59
2020/12/11 07:06:09;;;;;;;31.20;28.17;;;34.20;54.60;;;;;;5000981;28;20246;-57
2020/12/11 07:08:40;;;;;;;31.33;28.33;;;34.30;54.80;;;;;;5043642;28;20234;-59
2020/12/11 07:11:12;;;;;;;30.48;27.40;;;34.30;55.00;;;;;;5053554;28;20803;-60
2020/12/11 07:13:51;;;;;;;33.70;30.48;;;34.30;54.90;;;;;;5048196;28;20240;-59
2020/12/11 07:16:22;;;;;;;30.15;27.08;;;34.30;55.10;;;;;;5048977;28;20669;-59
2020/12/11 07:18:53;;;;;;;28.02;25.33;;;34.30;54.70;;;;;;5043618;28;20230;-58
2020/12/11 07:21:30;;;;;;;31.58;28.58;;;34.30;54.90;;;;;;5066973;28;20225;-59
2020/12/11 07:24:01;;;;;;;27.92;25.33;;;34.30;55.30;;;;;;5005795;28;20262;-59
2020/12/11 07:26:31;;;;;;;30.98;27.90;;;34.30;55.20;;;;;;5006822;28;20266;-58
2020/12/11 07:29:09;;;;;;;32.38;28.80;;;34.30;55.00;;;;;;5009208;28;20231;-59
2020/12/11 07:31:41;;;;;;;40.03;35.97;;;34.30;55.80;;;;;;5001138;28;21102;-59
2020/12/11 07:34:14;;;;;;;37.67;34.08;;;34.40;55.30;;;;;;5001286;28;20255;-59
2020/12/11 07:36:47;;;;;;;35.10;31.88;;;34.40;55.30;;;;;;5002735;28;20600;-60
2020/12/11 07:39:17;;;;;;;39.55;35.65;;;34.40;55.40;;;;;;5004361;28;20337;-61
2020/12/11 07:41:48;;;;;;;35.55;32.03;;;34.30;55.50;;;;;;4998543;28;20301;-61
2020/12/11 07:44:24;;;;;;;39.10;35.30;;;34.30;55.40;;;;;;5005007;28;20233;-60
2020/12/11 07:46:55;;;;;;;34.55;31.15;;;34.30;55.40;;;;;;5009227;28;20281;-59
2020/12/11 07:49:38;;;;;;;35.15;31.75;;;34.30;55.50;;;;;;4999169;28;20693;-58
2020/12/11 07:52:09;;;;;;;35.83;32.42;;;34.30;55.40;;;;;;5010994;28;20844;-59
2020/12/11 07:54:40;;;;;;;33.88;30.38;;;34.30;55.20;;;;;;5029734;28;20693;-60
2020/12/11 07:57:11;;;;;;;34.75;31.60;;;34.30;55.20;;;;;;5065139;28;20286;-60
2020/12/11 07:59:42;;;;;;;36.60;32.88;;;34.30;55.20;;;;;;5068439;28;21023;-60
2020/12/11 08:02:14;;;;;;;36.60;33.10;;;34.30;55.30;;;;;;5068738;28;20251;-60
2020/12/11 08:04:45;;;;;;;38.55;34.92;;;34.30;55.30;;;;;;5062038;28;20331;-59
2020/12/11 08:07:24;;;;;;;36.05;32.45;;;34.30;55.40;;;;;;5068725;28;20249;-61
2020/12/11 08:09:54;;;;;;;37.67;34.03;;;34.30;55.00;;;;;;5067578;28;20763;-57
2020/12/11 08:12:24;;;;;;;31.77;28.83;;;34.30;55.10;;;;;;5069871;28;20233;-59
2020/12/11 08:14:56;;;;;;;38.50;34.67;;;34.40;55.40;;;;;;5067341;28;20274;-59
2020/12/11 08:17:27;;;;;;;33.63;30.60;;;34.40;55.10;;;;;;5069774;28;20243;-58
2020/12/11 08:20:00;;;;;;;35.85;32.38;;;34.40;55.10;;;;;;5062001;28;20959;-60
2020/12/11 08:22:34;;;;;;;35.47;32.08;;;34.40;55.10;;;;;;5062049;28;20677;-59
2020/12/11 08:25:19;;;;;;;36.67;33.25;;;34.50;55.30;;;;;;5064010;28;20351;-60
2020/12/11 08:27:49;;;;;;;34.78;31.42;;;34.50;55.10;;;;;;5063826;28;20217;-60
2020/12/11 08:30:23;;;;;;;36.15;32.63;;;34.50;55.00;;;;;;5063631;28;20237;-57
2020/12/11 08:32:53;;;;;;;34.55;31.23;;;34.50;54.90;;;;;;5068322;28;20335;-59
2020/12/11 08:35:24;;;;;;;44.20;39.90;;;34.50;54.70;;;;;;5069241;28;20230;-59
2020/12/11 08:38:05;;;;;;;39.10;35.30;;;34.50;54.80;;;;;;5060191;28;20229;-59
2020/12/11 08:40:47;;;;;;;37.47;33.85;;;34.40;54.80;;;;;;5069944;28;20233;-56
2020/12/11 08:43:27;;;;;;;41.45;37.58;;;34.40;54.90;;;;;;5062447;28;20229;-58
2020/12/11 08:46:11;;;;;;;38.40;34.60;;;34.40;54.80;;;;;;5067302;28;20225;-59
2020/12/11 08:49:06;;;;;;;36.55;32.92;;;34.30;54.80;;;;;;5062141;28;20221;-56
2020/12/11 08:51:37;;;;;;;36.78;33.10;;;34.30;55.30;;;;;;5062132;28;20217;-59
2020/12/11 08:54:09;;;;;;;40.63;36.83;;;34.30;55.30;;;;;;5062716;28;20278;-59
2020/12/11 08:56:46;;;;;;;35.30;31.90;;;34.20;55.00;;;;;;5063852;28;20232;-59
2020/12/11 08:59:16;;;;;;;43.67;39.53;;;34.20;55.30;;;;;;5048650;28;20245;-59
2020/12/11 09:01:52;;;;;;;33.17;30.17;;;34.20;55.10;;;;;;5042307;28;20225;-58
2020/12/11 09:04:23;;;;;;;39.75;35.97;;;34.30;55.20;;;;;;5043241;28;20233;-58
2020/12/11 09:06:54;;;;;;;38.15;34.55;;;34.30;54.70;;;;;;5043054;28;20241;-59
2020/12/11 09:09:25;;;;;;;37.03;33.42;;;34.20;54.50;;;;;;5041997;28;20299;-59
2020/12/11 09:11:56;;;;;;;31.33;28.23;;;34.20;54.80;;;;;;5044120;28;20230;-59
2020/12/11 09:14:26;;;;;;;35.97;32.60;;;34.30;54.80;;;;;;5041936;28;21360;-59
2020/12/11 09:16:58;;;;;;;33.00;29.92;;;34.30;54.60;;;;;;5041850;28;20606;-59
2020/12/11 09:19:29;;;;;;;33.22;30.00;;;34.30;54.50;;;;;;5042603;28;20329;-59
2020/12/11 09:22:01;;;;;;;34.00;30.50;;;34.30;54.30;;;;;;5042500;28;20641;-59
2020/12/11 09:24:32;;;;;;;48.72;43.85;;;34.30;54.30;;;;;;5044324;28;20230;-59
2020/12/11 09:27:03;;;;;;;36.85;33.05;;;34.30;54.30;;;;;;5041256;28;20706;-59
2020/12/11 09:29:37;;;;;;;34.78;31.48;;;34.20;54.40;;;;;;5041102;28;20272;-56
2020/12/11 09:32:13;;;;;;;31.85;29.00;;;34.20;54.10;;;;;;5042136;28;20225;-57
2020/12/11 09:34:44;;;;;;;32.67;29.65;;;34.10;54.30;;;;;;5041643;28;20242;-59
2020/12/11 09:37:16;;;;;;;31.65;28.52;;;34.10;54.30;;;;;;5040092;28;20238;-58
2020/12/11 09:39:47;;;;;;;30.67;27.88;;;34.10;54.30;;;;;;5042861;28;20233;-59
2020/12/11 09:42:41;;;;;;;34.35;30.88;;;34.10;54.40;;;;;;5041328;28;20229;-59
2020/12/11 09:45:19;;;;;;;31.63;28.58;;;34.10;54.00;;;;;;5040794;28;20240;-59
2020/12/11 09:50:49;;;;;;;30.10;27.08;;;34.20;54.10;;;;;;5033587;28;20689;-59
2020/12/11 09:53:27;;;;;;;30.02;27.25;;;34.20;54.00;;;;;;5040887;28;20233;-56
2020/12/11 09:56:02;;;;;;;28.15;25.45;;;34.20;54.20;;;;;;5040797;28;20229;-59
2020/12/11 09:58:34;;;;;;;27.73;25.08;;;34.20;54.10;;;;;;5047125;28;20243;-59
2020/12/11 10:01:06;;;;;;;28.38;25.48;;;34.30;54.20;;;;;;5049644;28;20241;-59
2020/12/11 10:03:40;;;;;;;28.88;26.23;;;34.20;54.20;;;;;;5047864;28;20676;-58
2020/12/11 10:06:11;;;;;;;30.20;27.27;;;34.20;54.00;;;;;;5040761;28;20693;-59
2020/12/11 10:08:43;;;;;;;27.23;24.55;;;34.20;54.00;;;;;;5035161;28;20673;-59
2020/12/11 10:11:19;;;;;;;27.75;25.25;;;34.20;54.20;;;;;;5035200;28;20233;-59
2020/12/11 10:13:52;;;;;;;31.90;28.80;;;34.30;54.30;;;;;;5045094;28;20233;-58
2020/12/11 10:16:22;;;;;;;27.38;24.55;;;34.30;54.20;;;;;;5029698;28;20277;-59
2020/12/11 10:18:54;;;;;;;31.63;28.73;;;34.30;54.30;;;;;;5032497;28;20236;-57
2020/12/11 10:21:25;;;;;;;34.22;30.80;;;34.30;54.10;;;;;;5029560;28;20230;-58
2020/12/11 10:24:00;;;;;;;31.98;29.10;;;34.30;54.10;;;;;;5038286;28;20225;-57
2020/12/11 10:26:30;;;;;;;31.83;28.92;;;34.30;54.10;;;;;;5046770;28;20591;-60
2020/12/11 10:29:04;;;;;;;28.10;25.48;;;34.30;54.10;;;;;;5043550;28;20234;-59
2020/12/11 10:31:36;;;;;;;28.23;25.63;;;34.30;54.10;;;;;;5049616;28;20236;-58
2020/12/11 10:34:08;;;;;;;30.05;27.05;;;34.30;54.20;;;;;;5054925;28;20288;-59
2020/12/11 10:36:38;;;;;;;29.80;26.70;;;34.20;54.40;;;;;;5069998;28;20248;-58
2020/12/11 10:39:09;;;;;;;30.90;27.85;;;34.20;54.50;;;;;;5056584;28;20594;-56
2020/12/11 10:41:42;;;;;;;33.08;29.73;;;34.10;54.70;;;;;;5058637;28;20295;-58
2020/12/11 10:44:13;;;;;;;38.03;34.25;;;34.00;54.80;;;;;;5067306;28;20233;-60
2020/12/11 10:46:43;;;;;;;32.53;29.30;;;33.80;54.90;;;;;;5063520;28;20467;-59
2020/12/11 10:49:15;;;;;;;34.22;30.20;;;33.80;55.20;;;;;;5070123;28;20305;-59
2020/12/11 10:51:48;;;;;;;33.08;30.00;;;33.60;55.30;;;;;;5058457;28;20230;-58
2020/12/11 10:54:19;;;;;;;36.20;32.42;;;33.50;55.60;;;;;;5052930;28;20224;-60
2020/12/11 10:56:49;;;;;;;40.45;36.45;;;33.40;55.80;;;;;;5056250;28;20692;-60
2020/12/11 10:59:20;;;;;;;38.42;34.83;;;33.30;56.00;;;;;;5064107;28;21016;-60
2020/12/11 11:01:51;;;;;;;35.60;31.90;;;33.20;56.10;;;;;;5067979;28;20245;-59
2020/12/11 11:04:24;;;;;;;33.00;29.52;;;33.20;56.40;;;;;;5067954;28;20732;-60
2020/12/11 11:06:58;;;;;;;32.97;29.65;;;33.10;56.60;;;;;;5062395;28;20240;-60
2020/12/11 11:09:37;;;;;;;33.22;30.05;;;33.00;56.80;;;;;;5059728;28;20232;-60
2020/12/11 11:12:18;;;;;;;32.42;29.10;;;32.90;56.90;;;;;;5062213;28;20550;-60
2020/12/11 11:15:14;;;;;;;33.25;29.75;;;32.90;57.10;;;;;;5061907;28;20249;-61
2020/12/11 11:20:47;;;;;;;29.80;26.88;;;32.70;57.30;;;;;;5063745;28;20707;-61
2020/12/11 11:23:34;;;;;;;31.17;27.98;;;32.70;57.40;;;;;;5060888;28;20608;-60
2020/12/11 11:28:51;;;;;;;31.65;28.65;;;32.60;57.70;;;;;;5057150;28;20244;-60
2020/12/11 11:31:22;;;;;;;28.30;25.60;;;32.50;57.70;;;;;;5068359;28;20255;-61
2020/12/11 11:33:53;;;;;;;35.70;32.08;;;32.50;57.80;;;;;;5070129;28;20248;-64
2020/12/11 11:36:24;;;;;;;33.65;29.27;;;32.50;57.90;;;;;;5067956;28;20601;-63
2020/12/11 11:38:55;;;;;;;32.15;28.95;;;32.50;58.20;;;;;;5068416;28;20229;-63
2020/12/11 11:47:00;;;;;;;30.95;28.02;;;32.40;58.70;;;;;;5055418;28;20234;-64
2020/12/11 11:49:35;;;;;;;33.88;30.45;;;32.40;58.70;;;;;;5062908;28;20226;-61
2020/12/11 11:52:18;;;;;;;34.80;31.23;;;32.40;58.60;;;;;;5056244;28;20728;-61
2020/12/11 11:54:49;;;;;;;36.63;33.05;;;32.40;58.90;;;;;;5068894;28;20232;-60
2020/12/11 11:57:19;;;;;;;38.90;34.75;;;32.40;58.90;;;;;;5069063;28;20290;-60
2020/12/11 11:59:50;;;;;;;36.30;32.65;;;32.40;59.10;;;;;;5065670;28;20267;-60
2020/12/11 12:02:20;;;;;;;36.58;32.88;;;32.40;59.40;;;;;;5051323;28;20251;-61
2020/12/11 12:04:51;;;;;;;37.97;33.92;;;32.40;59.40;;;;;;5069186;28;20260;-61
2020/12/11 12:07:25;;;;;;;34.83;31.27;;;32.40;59.40;;;;;;5060403;28;20240;-62
2020/12/11 12:09:56;;;;;;;31.23;28.23;;;32.40;59.60;;;;;;5063189;28;20269;-61
2020/12/11 12:12:34;;;;;;;35.17;31.17;;;32.40;59.60;;;;;;5067627;28;20239;-62
2020/12/11 12:15:04;;;;;;;33.03;29.60;;;32.40;59.80;;;;;;5058305;28;20222;-61
2020/12/11 12:17:38;;;;;;;32.17;28.98;;;32.30;59.70;;;;;;5065090;28;20229;-61
2020/12/11 12:20:14;;;;;;;31.23;28.02;;;32.30;59.70;;;;;;5060081;28;20746;-62
2020/12/11 12:31:06;;;;;;;35.03;31.33;;;32.20;60.10;;;;;;5067347;28;20225;-61
2020/12/11 12:45:08;;;;;;;32.97;29.75;;;32.10;60.60;;;;;;4998633;28;20234;-59
2020/12/11 12:47:39;;;;;;;35.80;32.30;;;32.10;60.80;;;;;;5054337;28;20261;-61
2020/12/11 12:50:10;;;;;;;37.75;33.80;;;32.10;61.10;;;;;;5067073;28;22566;-60
2020/12/11 12:52:41;;;;;;;38.88;34.97;;;32.00;61.20;;;;;;5064777;28;20689;-60
2020/12/11 12:55:16;;;;;;;37.50;33.78;;;32.00;61.50;;;;;;5060301;28;20225;-60
2020/12/11 12:57:48;;;;;;;34.60;31.25;;;31.90;61.60;;;;;;5068469;28;20696;-59
2020/12/11 13:00:24;;;;;;;35.75;32.25;;;31.90;61.80;;;;;;5066853;28;20426;-61
2020/12/11 13:05:48;;;;;;;36.30;32.75;;;31.90;62.20;;;;;;5063362;28;20225;-61
2020/12/11 13:08:19;;;;;;;35.65;32.30;;;31.90;62.30;;;;;;5065193;28;20233;-59
2020/12/11 13:10:50;;;;;;;35.70;32.20;;;31.80;62.50;;;;;;5065684;28;20239;-59
2020/12/11 13:13:21;;;;;;;35.33;31.80;;;31.90;62.90;;;;;;5067467;28;20252;-60
2020/12/11 13:15:52;;;;;;;35.63;32.00;;;31.80;62.90;;;;;;5060584;28;20233;-60
2020/12/11 13:18:23;;;;;;;34.15;30.85;;;31.70;62.90;;;;;;5061197;28;20225;-61
2020/12/11 13:20:54;;;;;;;34.13;30.85;;;31.70;63.10;;;;;;5067144;28;20320;-62
2020/12/11 13:28:47;;;;;;;33.15;29.95;;;31.70;63.70;;;;;;5058371;28;20324;-60
2020/12/11 13:31:18;;;;;;;34.10;30.60;;;31.70;63.70;;;;;;5068422;28;20227;-61
2020/12/11 13:33:49;;;;;;;36.00;32.50;;;31.70;63.90;;;;;;5065492;28;20229;-61
2020/12/11 13:36:19;;;;;;;35.85;32.53;;;31.60;64.00;;;;;;5067536;28;20236;-61
2020/12/11 13:38:50;;;;;;;35.38;31.95;;;31.60;64.20;;;;;;5065837;28;20225;-61